sensor_id;sensor_type;location;lat;lon;timestamp;P1;durP1;ratioP1;P2;durP2;ratioP2
41446;SDS011;27185;52.040;4.490;2023-11-21T00:01:26;11.95;;;5.28;;
41446;SDS011;27185;52.040;4.490;2023-11-21T00:04:12;7.22;;;5.18;;
41446;SDS011;27185;52.040;4.490;2023-11-21T00:06:57;11.00;;;5.55;;
41446;SDS011;27185;52.040;4.490;2023-11-21T00:09:43;8.52;;;5.55;;
41446;SDS011;27185;52.040;4.490;2023-11-21T00:12:28;8.48;;;4.70;;
41446;SDS011;27185;52.040;4.490;2023-11-21T00:15:14;10.65;;;5.38;;
41446;SDS011;27185;52.040;4.490;2023-11-21T00:18:00;11.07;;;5.85;;
41446;SDS011;27185;52.040;4.490;2023-11-21T00:20:45;10.82;;;4.88;;
41446;SDS011;27185;52.040;4.490;2023-11-21T00:23:31;8.27;;;4.70;;
41446;SDS011;27185;52.040;4.490;2023-11-21T00:26:17;7.88;;;4.05;;
41446;SDS011;27185;52.040;4.490;2023-11-21T00:29:02;6.28;;;4.85;;
41446;SDS011;27185;52.040;4.490;2023-11-21T00:31:48;10.15;;;4.80;;
41446;SDS011;27185;52.040;4.490;2023-11-21T00:34:33;7.03;;;4.57;;
41446;SDS011;27185;52.040;4.490;2023-11-21T00:37:19;9.15;;;4.30;;
41446;SDS011;27185;52.040;4.490;2023-11-21T00:40:05;9.55;;;4.72;;
41446;SDS011;27185;52.040;4.490;2023-11-21T00:42:51;7.43;;;4.78;;
41446;SDS011;27185;52.040;4.490;2023-11-21T00:45:37;7.63;;;4.30;;
41446;SDS011;27185;52.040;4.490;2023-11-21T00:48:22;7.78;;;3.97;;
41446;SDS011;27185;52.040;4.490;2023-11-21T00:51:08;8.07;;;4.43;;
41446;SDS011;27185;52.040;4.490;2023-11-21T00:53:54;7.60;;;4.03;;
41446;SDS011;27185;52.040;4.490;2023-11-21T00:56:39;8.95;;;4.95;;
41446;SDS011;27185;52.040;4.490;2023-11-21T00:59:25;8.32;;;5.00;;
41446;SDS011;27185;52.040;4.490;2023-11-21T01:02:11;8.70;;;4.05;;
41446;SDS011;27185;52.040;4.490;2023-11-21T01:04:56;7.82;;;4.22;;
41446;SDS011;27185;52.040;4.490;2023-11-21T01:07:42;11.70;;;4.88;;
41446;SDS011;27185;52.040;4.490;2023-11-21T01:10:28;8.02;;;4.03;;
41446;SDS011;27185;52.040;4.490;2023-11-21T01:13:13;6.80;;;3.78;;
41446;SDS011;27185;52.040;4.490;2023-11-21T01:16:00;10.20;;;4.03;;
41446;SDS011;27185;52.040;4.490;2023-11-21T01:18:47;5.35;;;3.10;;
41446;SDS011;27185;52.040;4.490;2023-11-21T01:21:32;10.80;;;3.60;;
41446;SDS011;27185;52.040;4.490;2023-11-21T01:24:19;9.40;;;4.03;;
41446;SDS011;27185;52.040;4.490;2023-11-21T01:27:04;11.73;;;3.97;;
41446;SDS011;27185;52.040;4.490;2023-11-21T01:29:51;5.03;;;2.78;;
41446;SDS011;27185;52.040;4.490;2023-11-21T01:32:38;10.48;;;3.67;;
41446;SDS011;27185;52.040;4.490;2023-11-21T01:35:24;8.52;;;3.72;;
41446;SDS011;27185;52.040;4.490;2023-11-21T01:38:10;8.45;;;4.40;;
41446;SDS011;27185;52.040;4.490;2023-11-21T01:40:55;5.50;;;3.45;;
41446;SDS011;27185;52.040;4.490;2023-11-21T01:43:41;6.65;;;3.67;;
41446;SDS011;27185;52.040;4.490;2023-11-21T01:46:26;9.98;;;3.88;;
41446;SDS011;27185;52.040;4.490;2023-11-21T01:49:12;6.30;;;3.47;;
41446;SDS011;27185;52.040;4.490;2023-11-21T01:51:59;8.73;;;3.50;;
41446;SDS011;27185;52.040;4.490;2023-11-21T01:54:46;11.45;;;4.50;;
41446;SDS011;27185;52.040;4.490;2023-11-21T01:57:32;8.93;;;3.63;;
41446;SDS011;27185;52.040;4.490;2023-11-21T02:00:18;9.93;;;3.58;;
41446;SDS011;27185;52.040;4.490;2023-11-21T02:03:04;10.23;;;4.13;;
41446;SDS011;27185;52.040;4.490;2023-11-21T02:05:52;8.30;;;3.55;;
41446;SDS011;27185;52.040;4.490;2023-11-21T02:08:39;8.02;;;3.80;;
41446;SDS011;27185;52.040;4.490;2023-11-21T02:11:29;6.50;;;3.65;;
41446;SDS011;27185;52.040;4.490;2023-11-21T02:14:14;7.20;;;2.95;;
41446;SDS011;27185;52.040;4.490;2023-11-21T02:17:01;6.75;;;3.25;;
41446;SDS011;27185;52.040;4.490;2023-11-21T02:19:49;8.45;;;3.28;;
41446;SDS011;27185;52.040;4.490;2023-11-21T02:22:36;9.38;;;3.88;;
41446;SDS011;27185;52.040;4.490;2023-11-21T02:28:14;15.73;;;4.35;;
41446;SDS011;27185;52.040;4.490;2023-11-21T02:31:03;6.50;;;2.40;;
41446;SDS011;27185;52.040;4.490;2023-11-21T02:33:49;13.88;;;3.53;;
41446;SDS011;27185;52.040;4.490;2023-11-21T02:36:35;5.10;;;3.30;;
41446;SDS011;27185;52.040;4.490;2023-11-21T02:39:20;7.93;;;3.25;;
41446;SDS011;27185;52.040;4.490;2023-11-21T02:42:09;8.25;;;3.42;;
41446;SDS011;27185;52.040;4.490;2023-11-21T02:44:55;9.68;;;3.58;;
41446;SDS011;27185;52.040;4.490;2023-11-21T02:47:42;6.10;;;2.97;;
41446;SDS011;27185;52.040;4.490;2023-11-21T02:50:31;6.57;;;3.10;;
41446;SDS011;27185;52.040;4.490;2023-11-21T02:53:16;6.53;;;2.90;;
41446;SDS011;27185;52.040;4.490;2023-11-21T02:56:02;6.47;;;2.78;;
41446;SDS011;27185;52.040;4.490;2023-11-21T02:58:48;7.88;;;3.10;;
41446;SDS011;27185;52.040;4.490;2023-11-21T03:01:34;7.80;;;3.00;;
41446;SDS011;27185;52.040;4.490;2023-11-21T03:04:19;7.70;;;2.53;;
41446;SDS011;27185;52.040;4.490;2023-11-21T03:07:06;7.18;;;3.13;;
41446;SDS011;27185;52.040;4.490;2023-11-21T03:09:52;5.75;;;2.97;;
41446;SDS011;27185;52.040;4.490;2023-11-21T03:12:38;9.75;;;3.63;;
41446;SDS011;27185;52.040;4.490;2023-11-21T03:15:23;8.63;;;4.05;;
41446;SDS011;27185;52.040;4.490;2023-11-21T03:18:09;6.07;;;3.35;;
41446;SDS011;27185;52.040;4.490;2023-11-21T03:20:55;10.43;;;4.38;;
41446;SDS011;27185;52.040;4.490;2023-11-21T03:23:40;8.57;;;3.10;;
41446;SDS011;27185;52.040;4.490;2023-11-21T03:26:26;8.85;;;3.42;;
41446;SDS011;27185;52.040;4.490;2023-11-21T03:29:12;10.00;;;3.63;;
41446;SDS011;27185;52.040;4.490;2023-11-21T03:31:58;12.00;;;4.35;;
41446;SDS011;27185;52.040;4.490;2023-11-21T03:34:56;7.85;;;3.00;;
41446;SDS011;27185;52.040;4.490;2023-11-21T03:37:43;5.78;;;3.42;;
41446;SDS011;27185;52.040;4.490;2023-11-21T03:40:28;6.63;;;3.40;;
41446;SDS011;27185;52.040;4.490;2023-11-21T03:43:14;7.60;;;3.40;;
41446;SDS011;27185;52.040;4.490;2023-11-21T03:46:00;8.63;;;4.00;;
41446;SDS011;27185;52.040;4.490;2023-11-21T03:48:45;6.30;;;3.72;;
41446;SDS011;27185;52.040;4.490;2023-11-21T03:51:31;10.77;;;3.50;;
41446;SDS011;27185;52.040;4.490;2023-11-21T03:54:17;7.85;;;3.33;;
41446;SDS011;27185;52.040;4.490;2023-11-21T03:57:03;6.93;;;3.55;;
41446;SDS011;27185;52.040;4.490;2023-11-21T03:59:49;9.07;;;3.75;;
41446;SDS011;27185;52.040;4.490;2023-11-21T04:02:34;8.40;;;3.90;;
41446;SDS011;27185;52.040;4.490;2023-11-21T04:05:20;7.93;;;3.63;;
41446;SDS011;27185;52.040;4.490;2023-11-21T04:08:07;9.18;;;3.80;;
41446;SDS011;27185;52.040;4.490;2023-11-21T04:10:52;10.30;;;3.80;;
41446;SDS011;27185;52.040;4.490;2023-11-21T04:13:40;11.52;;;4.20;;
41446;SDS011;27185;52.040;4.490;2023-11-21T04:16:27;7.20;;;3.60;;
41446;SDS011;27185;52.040;4.490;2023-11-21T04:19:12;6.45;;;3.35;;
41446;SDS011;27185;52.040;4.490;2023-11-21T04:22:02;6.57;;;3.35;;
41446;SDS011;27185;52.040;4.490;2023-11-21T04:24:47;7.90;;;3.38;;
41446;SDS011;27185;52.040;4.490;2023-11-21T04:27:34;7.10;;;3.65;;
41446;SDS011;27185;52.040;4.490;2023-11-21T04:30:19;6.53;;;3.58;;
41446;SDS011;27185;52.040;4.490;2023-11-21T04:33:05;8.38;;;4.13;;
41446;SDS011;27185;52.040;4.490;2023-11-21T04:35:54;11.48;;;4.20;;
41446;SDS011;27185;52.040;4.490;2023-11-21T04:38:40;6.97;;;3.70;;
41446;SDS011;27185;52.040;4.490;2023-11-21T04:41:26;8.98;;;4.13;;
41446;SDS011;27185;52.040;4.490;2023-11-21T04:44:12;10.70;;;4.05;;
41446;SDS011;27185;52.040;4.490;2023-11-21T04:46:57;10.10;;;4.00;;
41446;SDS011;27185;52.040;4.490;2023-11-21T04:49:43;7.70;;;3.72;;
41446;SDS011;27185;52.040;4.490;2023-11-21T04:52:29;10.32;;;3.83;;
41446;SDS011;27185;52.040;4.490;2023-11-21T04:55:14;5.75;;;3.33;;
41446;SDS011;27185;52.040;4.490;2023-11-21T04:58:03;9.27;;;3.80;;
41446;SDS011;27185;52.040;4.490;2023-11-21T05:00:49;7.80;;;3.25;;
41446;SDS011;27185;52.040;4.490;2023-11-21T05:03:35;5.35;;;3.45;;
41446;SDS011;27185;52.040;4.490;2023-11-21T05:06:21;8.77;;;3.45;;
41446;SDS011;27185;52.040;4.490;2023-11-21T05:09:06;5.60;;;3.30;;
41446;SDS011;27185;52.040;4.490;2023-11-21T05:11:56;6.30;;;2.85;;
41446;SDS011;27185;52.040;4.490;2023-11-21T05:14:43;7.15;;;3.60;;
41446;SDS011;27185;52.040;4.490;2023-11-21T05:17:28;6.97;;;3.33;;
41446;SDS011;27185;52.040;4.490;2023-11-21T05:20:14;5.85;;;2.97;;
41446;SDS011;27185;52.040;4.490;2023-11-21T05:23:02;6.22;;;2.88;;
41446;SDS011;27185;52.040;4.490;2023-11-21T05:25:48;6.55;;;3.15;;
41446;SDS011;27185;52.040;4.490;2023-11-21T05:28:33;6.93;;;3.55;;
41446;SDS011;27185;52.040;4.490;2023-11-21T05:31:19;8.30;;;4.00;;
41446;SDS011;27185;52.040;4.490;2023-11-21T05:34:04;7.35;;;3.38;;
41446;SDS011;27185;52.040;4.490;2023-11-21T05:36:50;5.40;;;3.15;;
41446;SDS011;27185;52.040;4.490;2023-11-21T05:39:36;6.00;;;2.72;;
41446;SDS011;27185;52.040;4.490;2023-11-21T05:42:22;4.13;;;2.70;;
41446;SDS011;27185;52.040;4.490;2023-11-21T05:45:08;4.95;;;2.55;;
41446;SDS011;27185;52.040;4.490;2023-11-21T05:47:55;6.97;;;2.80;;
41446;SDS011;27185;52.040;4.490;2023-11-21T05:50:42;4.55;;;2.88;;
41446;SDS011;27185;52.040;4.490;2023-11-21T05:53:27;4.57;;;2.50;;
41446;SDS011;27185;52.040;4.490;2023-11-21T05:56:13;5.65;;;3.35;;
41446;SDS011;27185;52.040;4.490;2023-11-21T05:58:58;5.55;;;2.67;;
41446;SDS011;27185;52.040;4.490;2023-11-21T06:01:45;6.28;;;2.67;;
41446;SDS011;27185;52.040;4.490;2023-11-21T06:04:30;5.72;;;2.20;;
41446;SDS011;27185;52.040;4.490;2023-11-21T06:07:16;3.63;;;2.08;;
41446;SDS011;27185;52.040;4.490;2023-11-21T06:10:05;5.97;;;2.10;;
41446;SDS011;27185;52.040;4.490;2023-11-21T06:12:55;4.50;;;2.10;;
41446;SDS011;27185;52.040;4.490;2023-11-21T06:15:40;4.20;;;2.20;;
41446;SDS011;27185;52.040;4.490;2023-11-21T06:18:27;3.20;;;1.80;;
41446;SDS011;27185;52.040;4.490;2023-11-21T06:21:12;3.17;;;1.85;;
41446;SDS011;27185;52.040;4.490;2023-11-21T06:23:58;3.45;;;1.75;;
41446;SDS011;27185;52.040;4.490;2023-11-21T06:26:44;4.70;;;2.10;;
41446;SDS011;27185;52.040;4.490;2023-11-21T06:29:30;3.42;;;1.50;;
41446;SDS011;27185;52.040;4.490;2023-11-21T06:32:17;10.50;;;2.20;;
41446;SDS011;27185;52.040;4.490;2023-11-21T06:35:02;4.07;;;1.50;;
41446;SDS011;27185;52.040;4.490;2023-11-21T06:37:49;3.53;;;1.40;;
41446;SDS011;27185;52.040;4.490;2023-11-21T06:40:36;5.13;;;1.25;;
41446;SDS011;27185;52.040;4.490;2023-11-21T06:43:21;2.95;;;1.48;;
41446;SDS011;27185;52.040;4.490;2023-11-21T06:46:07;4.22;;;1.35;;
41446;SDS011;27185;52.040;4.490;2023-11-21T06:48:53;5.60;;;1.40;;
41446;SDS011;27185;52.040;4.490;2023-11-21T06:51:39;4.05;;;1.13;;
41446;SDS011;27185;52.040;4.490;2023-11-21T06:54:26;7.93;;;1.25;;
41446;SDS011;27185;52.040;4.490;2023-11-21T06:57:11;5.22;;;1.60;;
41446;SDS011;27185;52.040;4.490;2023-11-21T06:59:57;4.13;;;1.15;;
41446;SDS011;27185;52.040;4.490;2023-11-21T07:02:44;5.05;;;1.40;;
41446;SDS011;27185;52.040;4.490;2023-11-21T07:05:29;7.20;;;1.70;;
41446;SDS011;27185;52.040;4.490;2023-11-21T07:08:15;4.85;;;1.83;;
41446;SDS011;27185;52.040;4.490;2023-11-21T07:11:00;5.72;;;2.10;;
41446;SDS011;27185;52.040;4.490;2023-11-21T07:13:47;5.97;;;2.00;;
41446;SDS011;27185;52.040;4.490;2023-11-21T07:16:34;3.72;;;1.60;;
41446;SDS011;27185;52.040;4.490;2023-11-21T07:19:22;8.02;;;2.30;;
41446;SDS011;27185;52.040;4.490;2023-11-21T07:22:08;6.03;;;2.30;;
41446;SDS011;27185;52.040;4.490;2023-11-21T07:24:54;7.68;;;2.25;;
41446;SDS011;27185;52.040;4.490;2023-11-21T07:27:41;8.57;;;2.33;;
41446;SDS011;27185;52.040;4.490;2023-11-21T07:30:27;5.57;;;2.10;;
41446;SDS011;27185;52.040;4.490;2023-11-21T07:33:13;10.38;;;2.42;;
41446;SDS011;27185;52.040;4.490;2023-11-21T07:35:59;4.97;;;1.90;;
41446;SDS011;27185;52.040;4.490;2023-11-21T07:38:44;6.80;;;2.13;;
41446;SDS011;27185;52.040;4.490;2023-11-21T07:41:30;6.20;;;1.52;;
41446;SDS011;27185;52.040;4.490;2023-11-21T07:44:17;8.18;;;2.15;;
41446;SDS011;27185;52.040;4.490;2023-11-21T07:47:02;6.55;;;1.90;;
41446;SDS011;27185;52.040;4.490;2023-11-21T07:49:49;6.72;;;1.48;;
41446;SDS011;27185;52.040;4.490;2023-11-21T07:52:35;5.38;;;1.50;;
41446;SDS011;27185;52.040;4.490;2023-11-21T07:55:21;5.50;;;1.55;;
41446;SDS011;27185;52.040;4.490;2023-11-21T07:58:06;9.88;;;2.70;;
41446;SDS011;27185;52.040;4.490;2023-11-21T08:00:52;8.63;;;3.13;;
41446;SDS011;27185;52.040;4.490;2023-11-21T08:03:38;7.35;;;2.28;;
41446;SDS011;27185;52.040;4.490;2023-11-21T08:06:24;9.75;;;2.88;;
41446;SDS011;27185;52.040;4.490;2023-11-21T08:09:11;5.00;;;2.22;;
41446;SDS011;27185;52.040;4.490;2023-11-21T08:11:57;8.52;;;3.00;;
41446;SDS011;27185;52.040;4.490;2023-11-21T08:14:43;7.20;;;2.38;;
41446;SDS011;27185;52.040;4.490;2023-11-21T08:17:29;7.78;;;2.67;;
41446;SDS011;27185;52.040;4.490;2023-11-21T08:20:16;8.77;;;2.72;;
41446;SDS011;27185;52.040;4.490;2023-11-21T08:23:03;9.68;;;2.58;;
41446;SDS011;27185;52.040;4.490;2023-11-21T08:28:36;7.63;;;2.67;;
41446;SDS011;27185;52.040;4.490;2023-11-21T08:31:26;5.97;;;2.70;;
41446;SDS011;27185;52.040;4.490;2023-11-21T08:34:12;8.82;;;3.28;;
41446;SDS011;27185;52.040;4.490;2023-11-21T08:36:59;7.05;;;2.80;;
41446;SDS011;27185;52.040;4.490;2023-11-21T08:39:45;6.10;;;2.45;;
41446;SDS011;27185;52.040;4.490;2023-11-21T08:42:33;5.72;;;2.80;;
41446;SDS011;27185;52.040;4.490;2023-11-21T08:45:21;7.85;;;2.55;;
41446;SDS011;27185;52.040;4.490;2023-11-21T08:48:07;6.15;;;2.45;;
41446;SDS011;27185;52.040;4.490;2023-11-21T08:50:53;9.45;;;2.25;;
41446;SDS011;27185;52.040;4.490;2023-11-21T08:53:39;5.45;;;2.83;;
41446;SDS011;27185;52.040;4.490;2023-11-21T08:56:24;6.65;;;2.20;;
41446;SDS011;27185;52.040;4.490;2023-11-21T08:59:10;5.47;;;2.92;;
41446;SDS011;27185;52.040;4.490;2023-11-21T09:01:55;7.03;;;2.00;;
41446;SDS011;27185;52.040;4.490;2023-11-21T09:04:41;5.43;;;2.50;;
41446;SDS011;27185;52.040;4.490;2023-11-21T09:07:26;9.63;;;2.33;;
41446;SDS011;27185;52.040;4.490;2023-11-21T09:10:12;4.90;;;2.60;;
41446;SDS011;27185;52.040;4.490;2023-11-21T09:12:58;9.43;;;2.90;;
41446;SDS011;27185;52.040;4.490;2023-11-21T09:15:44;5.50;;;2.97;;
41446;SDS011;27185;52.040;4.490;2023-11-21T09:18:31;6.13;;;3.08;;
41446;SDS011;27185;52.040;4.490;2023-11-21T09:21:17;10.23;;;3.60;;
41446;SDS011;27185;52.040;4.490;2023-11-21T09:24:03;7.30;;;3.10;;
41446;SDS011;27185;52.040;4.490;2023-11-21T09:26:49;7.70;;;3.40;;
41446;SDS011;27185;52.040;4.490;2023-11-21T09:29:35;7.40;;;3.25;;
41446;SDS011;27185;52.040;4.490;2023-11-21T09:32:22;7.22;;;3.75;;
41446;SDS011;27185;52.040;4.490;2023-11-21T09:35:07;6.70;;;3.63;;
41446;SDS011;27185;52.040;4.490;2023-11-21T09:37:53;5.60;;;4.00;;
41446;SDS011;27185;52.040;4.490;2023-11-21T09:40:39;6.35;;;4.05;;
41446;SDS011;27185;52.040;4.490;2023-11-21T09:43:27;6.10;;;3.70;;
41446;SDS011;27185;52.040;4.490;2023-11-21T09:46:15;7.85;;;4.38;;
41446;SDS011;27185;52.040;4.490;2023-11-21T09:49:06;9.15;;;4.65;;
41446;SDS011;27185;52.040;4.490;2023-11-21T09:51:58;9.05;;;5.40;;
41446;SDS011;27185;52.040;4.490;2023-11-21T09:54:50;7.60;;;5.80;;
41446;SDS011;27185;52.040;4.490;2023-11-21T09:57:38;10.25;;;5.90;;
41446;SDS011;27185;52.040;4.490;2023-11-21T10:00:23;10.00;;;6.30;;
41446;SDS011;27185;52.040;4.490;2023-11-21T10:03:10;8.65;;;6.07;;
41446;SDS011;27185;52.040;4.490;2023-11-21T10:05:56;8.52;;;6.38;;
41446;SDS011;27185;52.040;4.490;2023-11-21T10:08:46;13.40;;;7.07;;
41446;SDS011;27185;52.040;4.490;2023-11-21T10:11:35;11.48;;;7.10;;
41446;SDS011;27185;52.040;4.490;2023-11-21T10:14:21;10.48;;;6.95;;
41446;SDS011;27185;52.040;4.490;2023-11-21T10:17:15;9.63;;;6.20;;
41446;SDS011;27185;52.040;4.490;2023-11-21T10:20:04;9.77;;;6.53;;
41446;SDS011;27185;52.040;4.490;2023-11-21T10:22:56;8.88;;;6.30;;
41446;SDS011;27185;52.040;4.490;2023-11-21T10:25:42;7.75;;;5.85;;
41446;SDS011;27185;52.040;4.490;2023-11-21T10:28:27;8.50;;;6.35;;
41446;SDS011;27185;52.040;4.490;2023-11-21T10:31:13;8.93;;;6.28;;
41446;SDS011;27185;52.040;4.490;2023-11-21T10:34:17;8.50;;;6.00;;
41446;SDS011;27185;52.040;4.490;2023-11-21T10:37:11;8.65;;;6.10;;
41446;SDS011;27185;52.040;4.490;2023-11-21T10:39:57;10.57;;;6.85;;
41446;SDS011;27185;52.040;4.490;2023-11-21T10:42:43;9.05;;;5.43;;
41446;SDS011;27185;52.040;4.490;2023-11-21T10:45:29;9.85;;;7.03;;
41446;SDS011;27185;52.040;4.490;2023-11-21T10:48:15;10.32;;;5.57;;
41446;SDS011;27185;52.040;4.490;2023-11-21T10:51:06;8.82;;;5.65;;
41446;SDS011;27185;52.040;4.490;2023-11-21T10:53:54;10.10;;;6.00;;
41446;SDS011;27185;52.040;4.490;2023-11-21T10:56:41;7.40;;;4.95;;
41446;SDS011;27185;52.040;4.490;2023-11-21T10:59:29;8.35;;;4.82;;
41446;SDS011;27185;52.040;4.490;2023-11-21T11:05:13;8.30;;;4.75;;
41446;SDS011;27185;52.040;4.490;2023-11-21T11:08:05;8.43;;;5.20;;
41446;SDS011;27185;52.040;4.490;2023-11-21T11:13:38;10.07;;;5.78;;
41446;SDS011;27185;52.040;4.490;2023-11-21T11:16:27;10.00;;;5.82;;
41446;SDS011;27185;52.040;4.490;2023-11-21T11:19:13;10.90;;;6.97;;
41446;SDS011;27185;52.040;4.490;2023-11-21T11:33:57;9.90;;;6.00;;
41446;SDS011;27185;52.040;4.490;2023-11-21T11:37:01;10.63;;;7.13;;
41446;SDS011;27185;52.040;4.490;2023-11-21T11:39:53;12.45;;;8.70;;
41446;SDS011;27185;52.040;4.490;2023-11-21T11:42:39;12.43;;;7.53;;
41446;SDS011;27185;52.040;4.490;2023-11-21T11:45:47;11.70;;;7.40;;
41446;SDS011;27185;52.040;4.490;2023-11-21T11:48:37;12.20;;;8.00;;
41446;SDS011;27185;52.040;4.490;2023-11-21T11:51:24;11.63;;;8.15;;
41446;SDS011;27185;52.040;4.490;2023-11-21T11:54:10;11.90;;;8.00;;
41446;SDS011;27185;52.040;4.490;2023-11-21T11:56:58;14.02;;;8.50;;
41446;SDS011;27185;52.040;4.490;2023-11-21T12:02:56;10.27;;;7.75;;
41446;SDS011;27185;52.040;4.490;2023-11-21T12:05:43;11.15;;;9.02;;
41446;SDS011;27185;52.040;4.490;2023-11-21T12:11:17;10.52;;;7.43;;
41446;SDS011;27185;52.040;4.490;2023-11-21T12:14:03;11.13;;;7.70;;
41446;SDS011;27185;52.040;4.490;2023-11-21T12:16:50;9.98;;;7.20;;
41446;SDS011;27185;52.040;4.490;2023-11-21T12:19:36;9.25;;;6.72;;
41446;SDS011;27185;52.040;4.490;2023-11-21T12:22:23;9.35;;;6.40;;
41446;SDS011;27185;52.040;4.490;2023-11-21T12:25:10;9.80;;;6.03;;
41446;SDS011;27185;52.040;4.490;2023-11-21T12:28:01;10.07;;;6.50;;
41446;SDS011;27185;52.040;4.490;2023-11-21T12:30:47;8.82;;;6.68;;
41446;SDS011;27185;52.040;4.490;2023-11-21T12:33:33;7.93;;;5.97;;
41446;SDS011;27185;52.040;4.490;2023-11-21T12:36:21;9.90;;;6.45;;
41446;SDS011;27185;52.040;4.490;2023-11-21T12:39:07;8.57;;;6.47;;
41446;SDS011;27185;52.040;4.490;2023-11-21T12:41:54;9.77;;;6.63;;
41446;SDS011;27185;52.040;4.490;2023-11-21T12:44:40;8.90;;;6.28;;
41446;SDS011;27185;52.040;4.490;2023-11-21T12:47:27;8.55;;;6.63;;
41446;SDS011;27185;52.040;4.490;2023-11-21T12:50:12;6.82;;;5.30;;
41446;SDS011;27185;52.040;4.490;2023-11-21T12:53:01;8.20;;;5.72;;
41446;SDS011;27185;52.040;4.490;2023-11-21T12:55:49;7.05;;;5.72;;
41446;SDS011;27185;52.040;4.490;2023-11-21T12:58:36;9.07;;;6.10;;
41446;SDS011;27185;52.040;4.490;2023-11-21T13:01:30;8.18;;;5.18;;
41446;SDS011;27185;52.040;4.490;2023-11-21T13:04:16;8.23;;;5.97;;
41446;SDS011;27185;52.040;4.490;2023-11-21T13:07:05;7.60;;;5.55;;
41446;SDS011;27185;52.040;4.490;2023-11-21T13:09:59;8.00;;;6.10;;
41446;SDS011;27185;52.040;4.490;2023-11-21T13:12:50;8.55;;;5.93;;
41446;SDS011;27185;52.040;4.490;2023-11-21T13:15:38;9.68;;;6.18;;
41446;SDS011;27185;52.040;4.490;2023-11-21T13:18:25;10.07;;;6.50;;
41446;SDS011;27185;52.040;4.490;2023-11-21T13:21:12;9.60;;;6.28;;
41446;SDS011;27185;52.040;4.490;2023-11-21T13:23:58;8.55;;;5.47;;
41446;SDS011;27185;52.040;4.490;2023-11-21T13:26:44;7.75;;;5.75;;
41446;SDS011;27185;52.040;4.490;2023-11-21T13:29:32;8.13;;;5.43;;
41446;SDS011;27185;52.040;4.490;2023-11-21T13:32:19;8.02;;;5.82;;
41446;SDS011;27185;52.040;4.490;2023-11-21T13:35:07;9.07;;;6.40;;
41446;SDS011;27185;52.040;4.490;2023-11-21T13:38:06;9.77;;;6.95;;
41446;SDS011;27185;52.040;4.490;2023-11-21T13:40:52;10.68;;;6.55;;
41446;SDS011;27185;52.040;4.490;2023-11-21T13:43:39;9.90;;;5.30;;
41446;SDS011;27185;52.040;4.490;2023-11-21T13:46:29;8.73;;;6.43;;
41446;SDS011;27185;52.040;4.490;2023-11-21T13:49:20;8.35;;;6.70;;
41446;SDS011;27185;52.040;4.490;2023-11-21T13:52:06;13.05;;;6.10;;
41446;SDS011;27185;52.040;4.490;2023-11-21T13:54:52;11.88;;;7.13;;
41446;SDS011;27185;52.040;4.490;2023-11-21T13:57:38;10.23;;;6.22;;
41446;SDS011;27185;52.040;4.490;2023-11-21T14:00:24;6.80;;;5.40;;
41446;SDS011;27185;52.040;4.490;2023-11-21T14:03:29;8.52;;;6.32;;
41446;SDS011;27185;52.040;4.490;2023-11-21T14:06:24;10.52;;;5.68;;
41446;SDS011;27185;52.040;4.490;2023-11-21T14:09:21;9.55;;;6.32;;
41446;SDS011;27185;52.040;4.490;2023-11-21T14:12:10;11.60;;;5.80;;
41446;SDS011;27185;52.040;4.490;2023-11-21T14:14:58;8.60;;;5.50;;
41446;SDS011;27185;52.040;4.490;2023-11-21T14:17:43;7.45;;;5.50;;
41446;SDS011;27185;52.040;4.490;2023-11-21T14:20:29;8.35;;;6.05;;
41446;SDS011;27185;52.040;4.490;2023-11-21T14:23:15;11.10;;;7.70;;
41446;SDS011;27185;52.040;4.490;2023-11-21T14:26:01;11.52;;;8.50;;
41446;SDS011;27185;52.040;4.490;2023-11-21T14:28:46;11.38;;;8.38;;
41446;SDS011;27185;52.040;4.490;2023-11-21T14:31:34;14.43;;;9.87;;
41446;SDS011;27185;52.040;4.490;2023-11-21T14:34:20;14.82;;;10.27;;
41446;SDS011;27185;52.040;4.490;2023-11-21T14:37:06;14.88;;;9.75;;
41446;SDS011;27185;52.040;4.490;2023-11-21T14:39:52;14.10;;;10.02;;
41446;SDS011;27185;52.040;4.490;2023-11-21T14:42:37;14.75;;;10.18;;
41446;SDS011;27185;52.040;4.490;2023-11-21T14:45:25;13.57;;;9.03;;
41446;SDS011;27185;52.040;4.490;2023-11-21T14:48:11;13.30;;;9.65;;
41446;SDS011;27185;52.040;4.490;2023-11-21T14:51:01;13.25;;;8.82;;
41446;SDS011;27185;52.040;4.490;2023-11-21T14:53:46;15.52;;;10.18;;
41446;SDS011;27185;52.040;4.490;2023-11-21T14:56:44;13.75;;;9.48;;
41446;SDS011;27185;52.040;4.490;2023-11-21T14:59:30;13.45;;;9.40;;
41446;SDS011;27185;52.040;4.490;2023-11-21T15:02:20;11.63;;;8.57;;
41446;SDS011;27185;52.040;4.490;2023-11-21T15:05:07;11.63;;;7.45;;
41446;SDS011;27185;52.040;4.490;2023-11-21T15:07:58;10.05;;;7.53;;
41446;SDS011;27185;52.040;4.490;2023-11-21T15:10:58;7.93;;;6.10;;
41446;SDS011;27185;52.040;4.490;2023-11-21T15:13:44;10.43;;;7.38;;
41446;SDS011;27185;52.040;4.490;2023-11-21T15:16:30;9.23;;;6.90;;
41446;SDS011;27185;52.040;4.490;2023-11-21T15:19:15;11.23;;;6.82;;
41446;SDS011;27185;52.040;4.490;2023-11-21T15:22:03;9.25;;;6.72;;
41446;SDS011;27185;52.040;4.490;2023-11-21T15:24:52;10.80;;;6.55;;
41446;SDS011;27185;52.040;4.490;2023-11-21T15:27:38;9.20;;;6.70;;
41446;SDS011;27185;52.040;4.490;2023-11-21T15:30:26;10.27;;;6.77;;
41446;SDS011;27185;52.040;4.490;2023-11-21T15:33:12;10.10;;;7.00;;
41446;SDS011;27185;52.040;4.490;2023-11-21T15:35:57;10.45;;;6.47;;
41446;SDS011;27185;52.040;4.490;2023-11-21T15:38:43;9.88;;;6.65;;
41446;SDS011;27185;52.040;4.490;2023-11-21T15:41:29;10.43;;;7.25;;
41446;SDS011;27185;52.040;4.490;2023-11-21T15:44:15;11.10;;;7.22;;
41446;SDS011;27185;52.040;4.490;2023-11-21T15:47:01;12.55;;;8.50;;
41446;SDS011;27185;52.040;4.490;2023-11-21T15:52:34;12.65;;;8.45;;
41446;SDS011;27185;52.040;4.490;2023-11-21T15:55:20;12.57;;;9.15;;
41446;SDS011;27185;52.040;4.490;2023-11-21T15:58:06;14.20;;;9.82;;
41446;SDS011;27185;52.040;4.490;2023-11-21T16:00:51;36.70;;;23.67;;
41446;SDS011;27185;52.040;4.490;2023-11-21T16:03:37;17.38;;;12.20;;
41446;SDS011;27185;52.040;4.490;2023-11-21T16:06:23;14.95;;;10.13;;
41446;SDS011;27185;52.040;4.490;2023-11-21T16:09:08;14.07;;;10.38;;
41446;SDS011;27185;52.040;4.490;2023-11-21T16:12:06;12.15;;;8.65;;
41446;SDS011;27185;52.040;4.490;2023-11-21T16:14:52;12.50;;;9.15;;
41446;SDS011;27185;52.040;4.490;2023-11-21T16:17:38;14.80;;;10.30;;
41446;SDS011;27185;52.040;4.490;2023-11-21T16:20:26;15.27;;;10.30;;
41446;SDS011;27185;52.040;4.490;2023-11-21T16:23:12;13.85;;;10.45;;
41446;SDS011;27185;52.040;4.490;2023-11-21T16:25:57;12.68;;;8.75;;
41446;SDS011;27185;52.040;4.490;2023-11-21T16:28:43;13.82;;;8.55;;
41446;SDS011;27185;52.040;4.490;2023-11-21T16:31:29;12.48;;;9.85;;
41446;SDS011;27185;52.040;4.490;2023-11-21T16:34:15;15.00;;;10.32;;
41446;SDS011;27185;52.040;4.490;2023-11-21T16:37:02;13.77;;;10.30;;
41446;SDS011;27185;52.040;4.490;2023-11-21T16:39:50;14.38;;;9.93;;
41446;SDS011;27185;52.040;4.490;2023-11-21T16:42:36;13.45;;;9.55;;
41446;SDS011;27185;52.040;4.490;2023-11-21T16:45:23;12.18;;;10.02;;
41446;SDS011;27185;52.040;4.490;2023-11-21T16:48:08;13.90;;;10.13;;
41446;SDS011;27185;52.040;4.490;2023-11-21T16:50:54;13.40;;;10.75;;
41446;SDS011;27185;52.040;4.490;2023-11-21T16:53:40;15.23;;;10.50;;
41446;SDS011;27185;52.040;4.490;2023-11-21T16:56:27;18.98;;;11.77;;
41446;SDS011;27185;52.040;4.490;2023-11-21T16:59:13;15.48;;;10.90;;
41446;SDS011;27185;52.040;4.490;2023-11-21T17:01:58;13.38;;;9.77;;
41446;SDS011;27185;52.040;4.490;2023-11-21T17:04:44;14.43;;;11.65;;
41446;SDS011;27185;52.040;4.490;2023-11-21T17:07:32;14.73;;;11.32;;
41446;SDS011;27185;52.040;4.490;2023-11-21T17:10:17;13.57;;;10.48;;
41446;SDS011;27185;52.040;4.490;2023-11-21T17:13:05;13.27;;;9.75;;